Time;durP1;ratioP1;P1;durP2;ratioP2;P2;SDS_P1;SDS_P2;PMS_P1;PMS_P2;Temp;Humidity;BMP_temperature;BMP_pressure;BME280_temperature;BME280_humidity;BME280_pressure;Samples;Min_cycle;Max_cycle;Signal;HPM_P1;HPM_P2
2023/10/16 00:02:45;;;;;;;1.50;1.30;;;;;;;;;;4930860;29;21074;-82
2023/10/16 00:05:49;;;;;;;4.30;1.60;;;;;;;;;;4919966;29;20184;-82
2023/10/16 00:08:58;;;;;;;2.60;1.40;;;;;;;;;;4931882;29;20185;-82
2023/10/16 00:12:04;;;;;;;3.03;1.63;;;;;;;;;;4920063;29;20214;-82
2023/10/16 00:15:08;;;;;;;2.30;1.30;;;;;;;;;;4899616;29;20224;-82
2023/10/16 00:18:22;;;;;;;1.50;1.20;;;;;;;;;;4931632;29;20185;-82
2023/10/16 00:21:30;;;;;;;1.77;1.40;;;;;;;;;;4920458;29;20194;-82
2023/10/16 00:24:34;;;;;;;1.60;1.50;;;;;;;;;;4914865;29;20710;-82
2023/10/16 00:27:39;;;;;;;1.83;1.40;;;;;;;;;;4927792;29;20193;-82
2023/10/16 00:30:46;;;;;;;2.70;1.47;;;;;;;;;;4927514;29;20189;-82
2023/10/16 00:33:53;;;;;;;7.23;1.73;;;;;;;;;;4915277;29;20220;-82
2023/10/16 00:37:01;;;;;;;2.80;1.60;;;;;;;;;;4914552;29;20189;-81
2023/10/16 00:40:10;;;;;;;2.90;1.37;;;;;;;;;;4925211;29;20192;-82
2023/10/16 00:43:19;;;;;;;2.47;1.50;;;;;;;;;;4914444;29;20632;-82
2023/10/16 00:46:39;;;;;;;1.77;1.43;;;;;;;;;;4914759;29;20643;-82
2023/10/16 00:49:47;;;;;;;2.43;1.50;;;;;;;;;;4924291;29;20189;-82
2023/10/16 00:52:51;;;;;;;1.97;1.50;;;;;;;;;;4913843;29;20216;-82
2023/10/16 00:55:56;;;;;;;1.70;1.53;;;;;;;;;;4905206;29;20185;-82
2023/10/16 00:59:01;;;;;;;2.83;1.70;;;;;;;;;;4904181;29;20551;-82
2023/10/16 01:05:23;;;;;;;1.77;1.40;;;;;;;;;;4925493;29;20228;-82
2023/10/16 01:08:28;;;;;;;1.40;1.30;;;;;;;;;;4922645;29;20181;-82
2023/10/16 01:11:32;;;;;;;2.50;1.70;;;;;;;;;;4923085;29;20221;-82
2023/10/16 01:14:38;;;;;;;2.10;1.30;;;;;;;;;;4912147;29;20228;-82
2023/10/16 01:17:43;;;;;;;2.83;1.60;;;;;;;;;;4922837;29;20204;-82
2023/10/16 01:20:48;;;;;;;5.37;1.60;;;;;;;;;;4922206;29;20201;-82
2023/10/16 01:23:55;;;;;;;4.50;1.60;;;;;;;;;;4900058;29;20698;-82
2023/10/16 01:27:12;;;;;;;2.67;1.50;;;;;;;;;;4923121;29;20189;-82
2023/10/16 01:30:17;;;;;;;1.70;1.40;;;;;;;;;;4914144;29;20547;-82
2023/10/16 01:33:23;;;;;;;2.57;1.40;;;;;;;;;;4922673;29;20240;-82
2023/10/16 01:36:27;;;;;;;2.40;1.50;;;;;;;;;;4912894;29;20197;-82
2023/10/16 01:39:49;;;;;;;2.70;1.20;;;;;;;;;;4923897;29;20557;-82
2023/10/16 01:42:54;;;;;;;1.47;1.37;;;;;;;;;;4923245;29;20181;-82
2023/10/16 01:46:03;;;;;;;2.30;1.67;;;;;;;;;;4901666;29;20193;-83
2023/10/16 01:49:08;;;;;;;2.13;1.47;;;;;;;;;;4922474;29;20541;-82
2023/10/16 01:52:12;;;;;;;1.73;1.50;;;;;;;;;;4922878;29;20217;-83
2023/10/16 01:55:17;;;;;;;2.27;1.30;;;;;;;;;;4922525;29;20575;-82
2023/10/16 01:58:23;;;;;;;2.83;1.53;;;;;;;;;;4921124;29;20612;-82
2023/10/16 02:01:27;;;;;;;2.97;1.33;;;;;;;;;;4910216;29;20650;-82
2023/10/16 02:04:31;;;;;;;2.83;1.63;;;;;;;;;;4920221;29;20658;-83
2023/10/16 02:07:41;;;;;;;2.73;1.40;;;;;;;;;;4900303;29;20545;-82
2023/10/16 02:10:45;;;;;;;1.37;1.23;;;;;;;;;;4909698;29;20541;-82
2023/10/16 02:13:50;;;;;;;2.30;1.80;;;;;;;;;;4920816;29;20621;-82
2023/10/16 02:16:54;;;;;;;1.83;1.73;;;;;;;;;;4911344;29;20549;-83
2023/10/16 02:19:58;;;;;;;2.43;1.50;;;;;;;;;;4921492;29;20545;-83
2023/10/16 02:23:06;;;;;;;4.33;1.50;;;;;;;;;;4921244;29;20549;-82
2023/10/16 02:26:11;;;;;;;2.40;1.47;;;;;;;;;;4922830;29;20546;-82
2023/10/16 02:29:16;;;;;;;4.47;1.70;;;;;;;;;;4911318;29;20888;-82
2023/10/16 02:32:22;;;;;;;2.47;1.47;;;;;;;;;;4921321;29;20596;-82
2023/10/16 02:35:28;;;;;;;1.53;1.23;;;;;;;;;;4910594;29;20550;-82
2023/10/16 02:38:32;;;;;;;1.70;1.50;;;;;;;;;;4910157;29;20546;-83
2023/10/16 02:41:36;;;;;;;1.73;1.40;;;;;;;;;;4921395;29;20899;-83
2023/10/16 02:44:45;;;;;;;2.23;1.50;;;;;;;;;;4899442;29;20633;-82
2023/10/16 02:47:49;;;;;;;1.93;1.20;;;;;;;;;;4912820;29;20529;-83
2023/10/16 02:50:59;;;;;;;2.23;1.90;;;;;;;;;;4915599;29;20545;-83
2023/10/16 02:54:07;;;;;;;2.20;1.90;;;;;;;;;;4926242;29;20620;-82
2023/10/16 02:57:11;;;;;;;1.93;1.50;;;;;;;;;;4909181;29;20601;-82
2023/10/16 03:00:25;;;;;;;5.40;1.70;;;;;;;;;;4919464;29;20538;-82
2023/10/16 03:03:29;;;;;;;1.60;1.50;;;;;;;;;;4920593;29;20613;-83
2023/10/16 03:06:39;;;;;;;2.47;1.60;;;;;;;;;;4921273;29;20546;-83
2023/10/16 03:09:49;;;;;;;3.20;1.80;;;;;;;;;;4909204;29;20912;-82
2023/10/16 03:12:55;;;;;;;3.13;1.50;;;;;;;;;;4909386;29;20609;-82
2023/10/16 03:16:05;;;;;;;2.43;1.77;;;;;;;;;;4909014;29;20561;-82
2023/10/16 03:19:10;;;;;;;2.20;1.70;;;;;;;;;;4920221;29;20554;-82
2023/10/16 03:22:16;;;;;;;1.57;1.33;;;;;;;;;;4920038;29;20541;-83
2023/10/16 03:25:28;;;;;;;4.33;1.90;;;;;;;;;;4920679;29;20616;-82
2023/10/16 03:28:35;;;;;;;2.07;1.80;;;;;;;;;;4909350;29;20565;-82
2023/10/16 03:31:40;;;;;;;2.47;1.73;;;;;;;;;;4919908;29;21110;-82
2023/10/16 03:34:44;;;;;;;2.80;1.53;;;;;;;;;;4896970;29;20609;-82
2023/10/16 03:37:49;;;;;;;1.90;1.70;;;;;;;;;;4919979;29;20565;-82
2023/10/16 03:40:56;;;;;;;3.40;2.03;;;;;;;;;;4886580;29;20565;-82
2023/10/16 03:44:06;;;;;;;2.47;2.10;;;;;;;;;;4908180;29;20629;-82
2023/10/16 03:47:11;;;;;;;3.77;2.17;;;;;;;;;;4900278;29;20546;-81
2023/10/16 03:50:23;;;;;;;3.43;1.87;;;;;;;;;;4899720;29;20558;-82
2023/10/16 03:53:32;;;;;;;2.33;2.13;;;;;;;;;;4900200;29;21214;-82
2023/10/16 03:56:36;;;;;;;1.87;1.50;;;;;;;;;;4899739;29;20539;-82
2023/10/16 03:59:42;;;;;;;3.13;1.87;;;;;;;;;;4904720;29;20562;-82
2023/10/16 04:02:46;;;;;;;2.50;1.87;;;;;;;;;;4892882;29;20548;-82
2023/10/16 04:05:51;;;;;;;2.33;1.67;;;;;;;;;;4904936;29;20551;-82
2023/10/16 04:08:55;;;;;;;2.53;1.70;;;;;;;;;;4914973;29;20546;-83
2023/10/16 04:12:06;;;;;;;3.13;1.80;;;;;;;;;;4904552;29;20542;-83
2023/10/16 04:15:23;;;;;;;3.17;1.87;;;;;;;;;;4904060;29;20640;-82
2023/10/16 04:21:37;;;;;;;3.20;2.00;;;;;;;;;;4903003;29;20550;-83
2023/10/16 04:24:44;;;;;;;3.40;1.83;;;;;;;;;;4892070;29;20622;-82
2023/10/16 04:27:59;;;;;;;2.37;1.90;;;;;;;;;;4913654;29;20546;-82
2023/10/16 04:31:31;;;;;;;3.17;1.80;;;;;;;;;;4902814;29;20546;-82
2023/10/16 04:34:39;;;;;;;2.33;1.60;;;;;;;;;;4903968;29;20630;-82
2023/10/16 04:37:49;;;;;;;2.33;1.90;;;;;;;;;;4925402;29;20546;-82
2023/10/16 04:44:22;;;;;;;2.43;2.20;;;;;;;;;;4903589;29;20610;-82
2023/10/16 04:47:41;;;;;;;3.37;2.47;;;;;;;;;;4902983;29;20546;-82
2023/10/16 04:50:49;;;;;;;2.90;2.40;;;;;;;;;;4908415;29;20890;-83
2023/10/16 04:54:13;;;;;;;2.40;2.20;;;;;;;;;;4907066;29;20665;-83
2023/10/16 05:00:54;;;;;;;4.17;2.00;;;;;;;;;;4901972;29;20538;-82
2023/10/16 05:07:37;;;;;;;5.37;2.93;;;;;;;;;;4902352;29;20539;-82
2023/10/16 05:11:23;;;;;;;4.30;3.43;;;;;;;;;;4890563;29;20543;-84
2023/10/16 05:14:22;;;;;;;6.00;3.20;;;;;;;;;;4903628;29;20657;-83
2023/10/16 05:21:16;;;;;;;2.50;1.90;;;;;;;;;;4901974;29;20905;-82
2023/10/16 06:14:58;;;;;;;5.70;2.50;;;;;;;;;;4902975;29;20622;-85
2023/10/16 06:18:06;;;;;;;3.70;2.57;;;;;;;;;;4881679;29;20542;-84
2023/10/16 06:21:14;;;;;;;4.53;2.67;;;;;;;;;;4912611;29;20562;-85
2023/10/16 06:24:32;;;;;;;3.53;2.97;;;;;;;;;;4879618;29;20613;-84
2023/10/16 06:27:41;;;;;;;2.87;2.40;;;;;;;;;;4900231;29;20570;-85
2023/10/16 06:30:45;;;;;;;3.23;2.70;;;;;;;;;;4901856;29;20539;-85
2023/10/16 06:33:53;;;;;;;2.97;2.77;;;;;;;;;;4900658;29;20661;-85
2023/10/16 06:36:57;;;;;;;8.07;4.30;;;;;;;;;;4911269;29;20546;-85
2023/10/16 06:40:04;;;;;;;7.60;4.90;;;;;;;;;;4911176;29;20554;-85
2023/10/16 06:43:15;;;;;;;5.30;3.83;;;;;;;;;;4901075;29;20559;-85
2023/10/16 06:46:24;;;;;;;7.70;5.67;;;;;;;;;;4889873;29;21099;-85
2023/10/16 06:49:38;;;;;;;8.93;5.43;;;;;;;;;;4901347;29;20550;-85
2023/10/16 06:52:45;;;;;;;11.27;5.27;;;;;;;;;;4893915;29;21084;-85
2023/10/16 06:55:52;;;;;;;6.23;3.30;;;;;;;;;;4903323;29;20546;-85
2023/10/16 06:58:57;;;;;;;6.27;3.33;;;;;;;;;;4902756;29;20621;-86
2023/10/16 07:02:01;;;;;;;4.67;3.47;;;;;;;;;;4904687;29;20566;-86
2023/10/16 07:05:06;;;;;;;5.10;4.60;;;;;;;;;;4905305;29;20952;-86
2023/10/16 07:08:18;;;;;;;5.60;4.10;;;;;;;;;;4904845;29;20547;-86
2023/10/16 07:11:24;;;;;;;6.77;4.00;;;;;;;;;;4900780;29;20185;-86
2023/10/16 07:14:28;;;;;;;6.57;4.13;;;;;;;;;;4900454;29;20233;-85
2023/10/16 07:17:33;;;;;;;7.77;5.53;;;;;;;;;;4912524;29;20546;-85
2023/10/16 07:24:03;;;;;;;14.17;11.27;;;;;;;;;;4901341;29;20610;-86
2023/10/16 07:27:12;;;;;;;10.83;7.67;;;;;;;;;;4901029;29;20190;-85
2023/10/16 07:30:22;;;;;;;6.87;4.70;;;;;;;;;;4902906;29;20534;-86
2023/10/16 07:33:27;;;;;;;6.97;4.27;;;;;;;;;;4912003;29;20657;-85
2023/10/16 07:36:31;;;;;;;5.80;3.87;;;;;;;;;;4893817;29;20190;-85
2023/10/16 07:39:35;;;;;;;4.47;3.57;;;;;;;;;;4905745;29;20189;-86
2023/10/16 07:42:39;;;;;;;4.77;3.57;;;;;;;;;;4904993;29;20217;-85
2023/10/16 07:45:45;;;;;;;9.37;4.10;;;;;;;;;;4926789;29;20190;-85
2023/10/16 07:48:52;;;;;;;5.93;3.50;;;;;;;;;;4904312;29;20202;-85
2023/10/16 07:51:59;;;;;;;4.87;3.53;;;;;;;;;;4905652;29;20197;-85
2023/10/16 07:55:05;;;;;;;5.07;4.00;;;;;;;;;;4916230;29;20233;-85
2023/10/16 07:58:16;;;;;;;8.80;4.60;;;;;;;;;;4907021;29;20229;-85
2023/10/16 08:01:36;;;;;;;10.57;5.00;;;;;;;;;;4907651;29;20193;-84
2023/10/16 08:04:43;;;;;;;8.00;6.20;;;;;;;;;;4894655;29;20230;-85
2023/10/16 08:07:47;;;;;;;6.93;5.00;;;;;;;;;;4905685;29;20190;-85
2023/10/16 08:10:52;;;;;;;7.50;4.93;;;;;;;;;;4903764;29;20628;-85
2023/10/16 08:13:56;;;;;;;7.03;4.83;;;;;;;;;;4905094;29;20229;-85
2023/10/16 08:17:14;;;;;;;7.13;5.00;;;;;;;;;;4896087;29;20201;-85
2023/10/16 08:20:18;;;;;;;9.77;5.70;;;;;;;;;;4885158;29;20190;-85
2023/10/16 08:23:23;;;;;;;7.57;4.60;;;;;;;;;;4905881;29;20228;-84
2023/10/16 08:26:28;;;;;;;5.23;4.37;;;;;;;;;;4904803;29;20529;-85
2023/10/16 08:29:37;;;;;;;4.33;3.43;;;;;;;;;;4919341;29;20194;-84
2023/10/16 08:35:51;;;;;;;5.67;3.70;;;;;;;;;;4904338;29;20190;-84
2023/10/16 08:38:55;;;;;;;6.67;4.20;;;;;;;;;;4882246;29;20193;-84
2023/10/16 08:45:25;;;;;;;5.57;3.57;;;;;;;;;;4901295;29;20225;-84
2023/10/16 08:48:29;;;;;;;4.70;2.97;;;;;;;;;;4902751;29;20198;-84
2023/10/16 08:51:33;;;;;;;2.47;2.27;;;;;;;;;;4901810;29;20223;-85
2023/10/16 08:55:00;;;;;;;3.10;2.40;;;;;;;;;;4913202;29;20233;-85
2023/10/16 08:58:04;;;;;;;3.07;1.90;;;;;;;;;;4903451;29;20572;-85
2023/10/16 09:01:11;;;;;;;4.77;2.23;;;;;;;;;;4891679;29;20194;-86
2023/10/16 09:04:17;;;;;;;4.93;2.40;;;;;;;;;;4913472;29;20225;-86
2023/10/16 09:07:24;;;;;;;3.23;2.03;;;;;;;;;;4912719;29;20194;-83
2023/10/16 09:10:30;;;;;;;6.00;2.43;;;;;;;;;;4891615;29;20190;-83
2023/10/16 09:13:38;;;;;;;3.37;1.90;;;;;;;;;;4891875;29;20229;-83
2023/10/16 09:16:47;;;;;;;3.53;1.90;;;;;;;;;;4891482;29;20194;-83
2023/10/16 09:19:53;;;;;;;2.57;2.00;;;;;;;;;;4912991;29;20186;-83
2023/10/16 09:23:02;;;;;;;4.07;1.83;;;;;;;;;;4900618;29;20186;-82
2023/10/16 09:26:07;;;;;;;3.13;1.80;;;;;;;;;;4889758;29;20178;-82
2023/10/16 09:29:14;;;;;;;4.20;2.17;;;;;;;;;;4901523;29;20193;-83
2023/10/16 09:32:27;;;;;;;2.90;1.87;;;;;;;;;;4901772;29;20197;-83
2023/10/16 09:35:32;;;;;;;3.70;1.83;;;;;;;;;;4912518;29;20556;-83
2023/10/16 09:38:42;;;;;;;2.30;1.70;;;;;;;;;;4892369;29;20189;-83
2023/10/16 09:41:49;;;;;;;3.67;1.80;;;;;;;;;;4902924;29;20190;-82
2023/10/16 09:44:59;;;;;;;2.53;1.97;;;;;;;;;;4903539;29;20226;-82
2023/10/16 09:48:09;;;;;;;4.23;2.10;;;;;;;;;;4902775;29;20190;-82
2023/10/16 09:51:14;;;;;;;3.00;2.00;;;;;;;;;;4904586;29;20186;-83
2023/10/16 09:54:21;;;;;;;5.97;2.07;;;;;;;;;;4900799;29;20695;-83
2023/10/16 09:57:30;;;;;;;3.93;2.30;;;;;;;;;;4900516;29;20185;-83
2023/10/16 10:00:38;;;;;;;6.23;2.80;;;;;;;;;;4903350;29;20186;-83
2023/10/16 10:03:42;;;;;;;7.47;3.73;;;;;;;;;;4902206;29;20225;-83
2023/10/16 10:06:54;;;;;;;5.13;2.77;;;;;;;;;;4890736;29;20193;-83
2023/10/16 10:09:59;;;;;;;5.63;3.43;;;;;;;;;;4902366;29;20182;-82
2023/10/16 10:13:15;;;;;;;6.67;3.60;;;;;;;;;;4900734;29;20190;-83
2023/10/16 10:16:22;;;;;;;4.83;4.10;;;;;;;;;;4900949;29;20648;-83
2023/10/16 10:19:39;;;;;;;5.27;3.60;;;;;;;;;;4910427;29;20186;-83
2023/10/16 10:22:45;;;;;;;4.90;3.63;;;;;;;;;;4910551;29;20186;-86
2023/10/16 10:25:53;;;;;;;5.47;3.73;;;;;;;;;;4899908;29;20189;-86
2023/10/16 10:29:11;;;;;;;7.73;4.30;;;;;;;;;;4889202;29;20190;-86
2023/10/16 10:32:15;;;;;;;5.60;4.00;;;;;;;;;;4890078;29;20186;-86
2023/10/16 10:35:22;;;;;;;5.53;3.90;;;;;;;;;;4899516;29;20241;-86
2023/10/16 10:38:29;;;;;;;6.00;4.40;;;;;;;;;;4888817;29;20628;-86
2023/10/16 10:41:47;;;;;;;7.53;4.20;;;;;;;;;;4900440;29;20190;-86
2023/10/16 10:45:45;;;;;;;5.27;3.87;;;;;;;;;;4899996;29;20221;-86
2023/10/16 10:48:24;;;;;;;5.60;4.00;;;;;;;;;;4894593;29;20193;-86
2023/10/16 10:51:35;;;;;;;5.17;3.70;;;;;;;;;;4901432;29;20190;-86
2023/10/16 10:54:53;;;;;;;4.80;3.43;;;;;;;;;;4900731;29;20229;-86
2023/10/16 10:58:01;;;;;;;4.00;3.20;;;;;;;;;;4899276;29;20695;-86
2023/10/16 11:01:16;;;;;;;5.63;4.40;;;;;;;;;;4879677;29;20194;-86
2023/10/16 11:04:21;;;;;;;5.57;4.20;;;;;;;;;;4901056;29;20217;-86
2023/10/16 11:07:29;;;;;;;4.97;4.00;;;;;;;;;;4889296;29;20190;-83
2023/10/16 11:10:33;;;;;;;5.67;3.80;;;;;;;;;;4901140;29;20186;-83
2023/10/16 11:13:48;;;;;;;5.33;3.90;;;;;;;;;;4902010;29;20229;-83
2023/10/16 11:16:52;;;;;;;6.03;3.97;;;;;;;;;;4902239;29;20218;-83
2023/10/16 11:19:57;;;;;;;5.27;4.30;;;;;;;;;;4902225;29;20194;-83
2023/10/16 11:23:12;;;;;;;4.23;3.67;;;;;;;;;;4890489;29;20197;-84
2023/10/16 11:26:16;;;;;;;5.57;4.00;;;;;;;;;;4900142;29;20181;-83
2023/10/16 11:29:20;;;;;;;5.10;4.40;;;;;;;;;;4900183;29;20189;-83
2023/10/16 11:32:26;;;;;;;5.63;4.60;;;;;;;;;;4900021;29;20190;-83
2023/10/16 11:35:34;;;;;;;3.70;3.30;;;;;;;;;;4900420;29;20217;-83
2023/10/16 11:38:38;;;;;;;6.60;4.10;;;;;;;;;;4901596;29;20198;-83
2023/10/16 11:41:43;;;;;;;4.80;4.30;;;;;;;;;;4911816;29;20636;-83
2023/10/16 11:44:51;;;;;;;6.97;4.53;;;;;;;;;;4901717;29;20221;-83
2023/10/16 11:51:28;;;;;;;5.27;4.07;;;;;;;;;;4903024;29;20190;-82
2023/10/16 11:54:33;;;;;;;3.87;3.33;;;;;;;;;;4900063;29;20242;-82
2023/10/16 11:57:41;;;;;;;3.40;3.10;;;;;;;;;;4888333;29;20205;-82
2023/10/16 12:00:53;;;;;;;2.87;2.50;;;;;;;;;;4899797;29;20197;-82
2023/10/16 12:03:57;;;;;;;3.30;1.87;;;;;;;;;;4900404;29;20222;-82
2023/10/16 12:07:01;;;;;;;2.33;1.97;;;;;;;;;;4899993;29;20194;-82
2023/10/16 12:10:07;;;;;;;2.63;2.00;;;;;;;;;;4878175;29;20190;-82
2023/10/16 12:13:11;;;;;;;3.13;1.93;;;;;;;;;;4890189;29;20194;-82
2023/10/16 12:16:17;;;;;;;10.77;3.00;;;;;;;;;;4878584;29;20221;-82
2023/10/16 12:19:24;;;;;;;4.93;2.90;;;;;;;;;;4902323;29;20210;-82
2023/10/16 12:22:30;;;;;;;3.57;2.50;;;;;;;;;;4914494;29;20190;-82
2023/10/16 12:25:35;;;;;;;2.93;2.50;;;;;;;;;;4915740;29;20190;-83
2023/10/16 12:28:39;;;;;;;4.07;2.20;;;;;;;;;;4903893;29;20189;-82
2023/10/16 12:31:44;;;;;;;2.80;2.20;;;;;;;;;;4903752;29;20632;-82
2023/10/16 12:34:49;;;;;;;3.07;2.33;;;;;;;;;;4890557;29;20237;-82
2023/10/16 12:37:55;;;;;;;2.33;2.10;;;;;;;;;;4902183;29;20190;-82
2023/10/16 12:41:05;;;;;;;3.07;2.20;;;;;;;;;;4912367;29;20190;-82
2023/10/16 12:44:10;;;;;;;2.47;2.13;;;;;;;;;;4911578;29;20225;-82
2023/10/16 12:47:14;;;;;;;5.00;2.37;;;;;;;;;;4902468;29;20185;-82
2023/10/16 12:50:23;;;;;;;5.93;2.53;;;;;;;;;;4895955;29;20193;-83
2023/10/16 12:53:28;;;;;;;4.63;2.63;;;;;;;;;;4909693;29;20225;-83
2023/10/16 12:56:33;;;;;;;2.83;2.13;;;;;;;;;;4919328;29;20221;-82
2023/10/16 12:59:37;;;;;;;3.03;2.50;;;;;;;;;;4897541;29;20209;-81
2023/10/16 13:02:43;;;;;;;3.10;2.10;;;;;;;;;;4924089;29;20186;-82
2023/10/16 13:05:48;;;;;;;2.90;2.00;;;;;;;;;;4885747;29;20189;-82
2023/10/16 13:08:53;;;;;;;4.43;2.50;;;;;;;;;;4908938;29;20520;-82
2023/10/16 13:11:57;;;;;;;2.50;2.07;;;;;;;;;;4905561;29;20190;-82
2023/10/16 13:15:01;;;;;;;5.83;2.57;;;;;;;;;;4907831;29;20232;-83
2023/10/16 13:18:11;;;;;;;2.53;2.10;;;;;;;;;;4898005;29;20643;-83
2023/10/16 13:21:16;;;;;;;3.57;2.10;;;;;;;;;;4900873;29;20663;-82
2023/10/16 13:24:20;;;;;;;2.10;1.90;;;;;;;;;;4910453;29;20229;-82
2023/10/16 13:27:25;;;;;;;4.43;2.30;;;;;;;;;;4911833;29;20186;-82
2023/10/16 13:30:31;;;;;;;3.47;2.03;;;;;;;;;;4910427;29;20197;-82
2023/10/16 13:33:40;;;;;;;4.00;2.10;;;;;;;;;;4898848;29;20225;-82
2023/10/16 13:37:00;;;;;;;2.20;1.70;;;;;;;;;;4897671;29;20210;-82
2023/10/16 13:40:15;;;;;;;2.60;1.90;;;;;;;;;;4911289;29;20189;-83
2023/10/16 13:43:20;;;;;;;3.73;1.97;;;;;;;;;;4911223;29;20221;-82
2023/10/16 13:46:26;;;;;;;2.50;1.97;;;;;;;;;;4909943;29;20189;-83
2023/10/16 13:49:43;;;;;;;1.97;1.77;;;;;;;;;;4910001;29;20186;-82
2023/10/16 13:52:48;;;;;;;3.57;1.90;;;;;;;;;;4907312;29;20650;-82
2023/10/16 13:55:59;;;;;;;7.37;2.83;;;;;;;;;;4909870;29;20214;-83
2023/10/16 13:59:03;;;;;;;2.37;1.97;;;;;;;;;;4910117;29;20213;-82
2023/10/16 14:02:08;;;;;;;3.90;2.40;;;;;;;;;;4909046;29;20189;-83
2023/10/16 14:05:13;;;;;;;7.70;2.23;;;;;;;;;;4907697;29;20225;-82
2023/10/16 14:08:36;;;;;;;3.67;2.00;;;;;;;;;;4908415;29;20190;-82
2023/10/16 14:11:47;;;;;;;3.57;1.70;;;;;;;;;;4906490;29;20189;-83
2023/10/16 14:14:52;;;;;;;2.50;1.87;;;;;;;;;;4907372;29;20217;-82
2023/10/16 14:17:59;;;;;;;2.37;1.67;;;;;;;;;;4908226;29;20190;-82
2023/10/16 14:21:08;;;;;;;2.43;1.73;;;;;;;;;;4907133;29;20190;-82
2023/10/16 14:24:17;;;;;;;5.93;2.10;;;;;;;;;;4894533;29;20570;-82
2023/10/16 14:27:24;;;;;;;2.97;1.60;;;;;;;;;;4906713;29;20636;-82
2023/10/16 14:30:28;;;;;;;2.23;1.73;;;;;;;;;;4907455;29;20189;-82
2023/10/16 14:33:33;;;;;;;2.10;1.80;;;;;;;;;;4907936;29;20229;-82
2023/10/16 14:36:39;;;;;;;4.70;2.30;;;;;;;;;;4906962;29;20217;-82
2023/10/16 14:39:46;;;;;;;4.63;2.10;;;;;;;;;;4915223;29;20217;-82
2023/10/16 14:42:49;;;;;;;3.13;1.70;;;;;;;;;;4894276;29;20186;-84
2023/10/16 14:45:54;;;;;;;3.40;2.20;;;;;;;;;;4900164;29;20205;-82
2023/10/16 14:48:59;;;;;;;2.83;1.63;;;;;;;;;;4905906;29;20208;-82
2023/10/16 14:52:03;;;;;;;3.07;2.10;;;;;;;;;;4906540;29;20193;-82
2023/10/16 14:55:08;;;;;;;4.00;2.10;;;;;;;;;;4905168;29;20225;-82
2023/10/16 14:58:13;;;;;;;5.00;2.47;;;;;;;;;;4905234;29;20224;-82
2023/10/16 15:01:19;;;;;;;3.50;1.93;;;;;;;;;;4905502;29;20193;-82
2023/10/16 15:04:24;;;;;;;2.20;1.90;;;;;;;;;;4873022;29;20225;-82
2023/10/16 15:07:28;;;;;;;4.80;2.10;;;;;;;;;;4881467;29;20185;-81
2023/10/16 15:10:33;;;;;;;2.13;1.93;;;;;;;;;;4883603;29;20193;-82
2023/10/16 15:13:38;;;;;;;2.53;2.13;;;;;;;;;;4882905;29;20225;-82
2023/10/16 15:16:43;;;;;;;2.70;2.20;;;;;;;;;;4883617;29;20226;-82
2023/10/16 15:19:48;;;;;;;2.93;2.10;;;;;;;;;;4894665;29;20190;-82
2023/10/16 15:22:52;;;;;;;3.23;1.97;;;;;;;;;;4873531;29;20652;-82
2023/10/16 15:25:57;;;;;;;2.83;2.40;;;;;;;;;;4872777;29;20639;-82
2023/10/16 15:29:01;;;;;;;2.77;2.27;;;;;;;;;;4898265;29;20213;-82
2023/10/16 15:32:07;;;;;;;2.60;2.40;;;;;;;;;;4876101;29;20190;-82
2023/10/16 15:35:14;;;;;;;2.43;2.23;;;;;;;;;;4901692;29;20232;-82
2023/10/16 15:38:28;;;;;;;3.37;1.97;;;;;;;;;;4891516;29;20182;-81
2023/10/16 15:41:32;;;;;;;5.20;2.30;;;;;;;;;;4902492;29;20185;-81
2023/10/16 15:44:39;;;;;;;2.23;2.03;;;;;;;;;;4901281;29;20225;-82
2023/10/16 15:47:44;;;;;;;2.30;2.03;;;;;;;;;;4901653;29;20214;-82
2023/10/16 15:50:49;;;;;;;3.23;2.17;;;;;;;;;;4901666;29;20193;-82
2023/10/16 15:53:53;;;;;;;2.57;2.33;;;;;;;;;;4903117;29;20228;-82
2023/10/16 15:56:57;;;;;;;2.40;1.83;;;;;;;;;;4893269;29;20683;-82
2023/10/16 16:00:04;;;;;;;4.13;2.50;;;;;;;;;;4890922;29;20209;-84
2023/10/16 16:03:16;;;;;;;3.87;2.87;;;;;;;;;;4886277;29;20186;-82
2023/10/16 16:06:20;;;;;;;3.73;2.83;;;;;;;;;;4886667;29;20183;-83
2023/10/16 16:09:25;;;;;;;2.57;2.00;;;;;;;;;;4890167;29;20209;-83
2023/10/16 16:12:29;;;;;;;3.53;2.50;;;;;;;;;;4886819;29;20214;-83
2023/10/16 16:15:36;;;;;;;4.80;2.43;;;;;;;;;;4905288;29;20220;-81
2023/10/16 16:18:40;;;;;;;3.97;2.90;;;;;;;;;;4905265;29;20612;-81
2023/10/16 16:21:44;;;;;;;3.10;2.80;;;;;;;;;;4905456;29;20193;-81
2023/10/16 16:24:48;;;;;;;5.20;2.60;;;;;;;;;;4904920;29;20221;-82
2023/10/16 16:27:53;;;;;;;3.07;2.77;;;;;;;;;;4893771;29;20182;-81
2023/10/16 16:30:57;;;;;;;4.20;2.77;;;;;;;;;;4904959;29;20186;-82
2023/10/16 16:34:01;;;;;;;3.63;3.10;;;;;;;;;;4904862;29;20706;-81
2023/10/16 16:37:07;;;;;;;3.73;2.87;;;;;;;;;;4893112;29;20221;-81
2023/10/16 16:40:11;;;;;;;4.10;2.70;;;;;;;;;;4904691;29;20190;-81
2023/10/16 16:43:18;;;;;;;4.43;2.80;;;;;;;;;;4892635;29;20198;-81
2023/10/16 16:46:24;;;;;;;3.43;3.07;;;;;;;;;;4892793;29;20186;-81
2023/10/16 16:49:28;;;;;;;5.47;2.93;;;;;;;;;;4904725;29;20520;-81
2023/10/16 16:52:33;;;;;;;3.07;2.40;;;;;;;;;;4904255;29;20189;-81
2023/10/16 16:55:37;;;;;;;5.67;2.60;;;;;;;;;;4892986;29;20186;-81
2023/10/16 16:58:41;;;;;;;3.00;2.70;;;;;;;;;;4881797;29;20209;-81
2023/10/16 17:01:48;;;;;;;3.53;2.40;;;;;;;;;;4904532;29;20190;-81
2023/10/16 17:04:53;;;;;;;2.27;2.07;;;;;;;;;;4881275;29;20226;-80
2023/10/16 17:07:57;;;;;;;2.67;2.03;;;;;;;;;;4891771;29;20185;-85
2023/10/16 17:11:01;;;;;;;2.37;2.17;;;;;;;;;;4890678;29;20189;-85
2023/10/16 17:14:05;;;;;;;4.40;2.20;;;;;;;;;;4879714;29;20229;-85
2023/10/16 17:17:10;;;;;;;2.77;2.27;;;;;;;;;;4892052;29;20220;-85
2023/10/16 17:20:15;;;;;;;4.67;2.10;;;;;;;;;;4903157;29;20194;-85
2023/10/16 17:23:19;;;;;;;2.93;2.13;;;;;;;;;;4902256;29;20190;-85
2023/10/16 17:26:23;;;;;;;2.93;1.73;;;;;;;;;;4889644;29;20205;-85
2023/10/16 17:29:27;;;;;;;3.47;2.20;;;;;;;;;;4884901;29;20194;-85
2023/10/16 17:32:33;;;;;;;3.57;2.50;;;;;;;;;;4891347;29;20209;-85
2023/10/16 17:35:39;;;;;;;2.20;2.00;;;;;;;;;;4881294;29;20194;-85
2023/10/16 17:38:43;;;;;;;2.47;2.00;;;;;;;;;;4881487;29;20639;-85
2023/10/16 17:41:50;;;;;;;3.43;2.10;;;;;;;;;;4892390;29;20193;-85
2023/10/16 17:44:54;;;;;;;3.00;2.10;;;;;;;;;;4902693;29;20702;-85
2023/10/16 17:47:58;;;;;;;3.83;2.10;;;;;;;;;;4891258;29;20189;-85
2023/10/16 17:51:03;;;;;;;3.00;2.20;;;;;;;;;;4884180;29;20216;-85
2023/10/16 17:54:09;;;;;;;2.30;1.93;;;;;;;;;;4890654;29;20584;-84
2023/10/16 17:57:13;;;;;;;2.73;2.00;;;;;;;;;;4902002;29;20241;-85
2023/10/16 18:00:23;;;;;;;2.20;2.00;;;;;;;;;;4883453;29;20198;-84
2023/10/16 18:03:27;;;;;;;2.40;2.20;;;;;;;;;;4861433;29;20222;-85
2023/10/16 18:06:36;;;;;;;3.03;2.33;;;;;;;;;;4872800;29;20182;-85
2023/10/16 18:09:40;;;;;;;4.23;2.37;;;;;;;;;;4883793;29;20186;-85
2023/10/16 18:12:47;;;;;;;2.30;2.10;;;;;;;;;;4883635;29;20195;-84
2023/10/16 18:15:52;;;;;;;2.53;2.17;;;;;;;;;;4883946;29;20194;-84
2023/10/16 18:19:03;;;;;;;2.73;2.30;;;;;;;;;;4882704;29;20182;-84
2023/10/16 18:22:08;;;;;;;2.10;1.90;;;;;;;;;;4872050;29;20644;-84
2023/10/16 18:25:14;;;;;;;8.40;2.57;;;;;;;;;;4871768;29;20230;-85
2023/10/16 18:28:19;;;;;;;2.17;1.97;;;;;;;;;;4883818;29;20182;-85
2023/10/16 18:31:23;;;;;;;2.20;2.00;;;;;;;;;;4871502;29;20636;-85
2023/10/16 18:34:27;;;;;;;3.20;2.03;;;;;;;;;;4882110;29;20221;-84
2023/10/16 18:37:31;;;;;;;3.13;1.90;;;;;;;;;;4871870;29;20217;-85
2023/10/16 18:40:40;;;;;;;5.37;2.30;;;;;;;;;;4882681;29;20194;-85
2023/10/16 18:43:49;;;;;;;2.47;2.27;;;;;;;;;;4882139;29;20398;-84
2023/10/16 18:46:53;;;;;;;3.13;2.17;;;;;;;;;;4884719;29;20183;-85
2023/10/16 18:49:57;;;;;;;4.27;2.13;;;;;;;;;;4901367;29;20197;-85
2023/10/16 18:53:01;;;;;;;2.40;2.13;;;;;;;;;;4903474;29;20197;-83
2023/10/16 18:56:08;;;;;;;3.47;2.47;;;;;;;;;;4891326;29;20529;-85
2023/10/16 18:59:15;;;;;;;2.60;2.30;;;;;;;;;;4901970;29;20659;-84
2023/10/16 19:02:19;;;;;;;2.83;2.43;;;;;;;;;;4890732;29;20190;-84
2023/10/16 19:05:27;;;;;;;4.10;2.50;;;;;;;;;;4902462;29;20225;-85
2023/10/16 19:08:33;;;;;;;4.03;2.70;;;;;;;;;;4881340;29;20186;-85
2023/10/16 19:11:38;;;;;;;3.20;2.73;;;;;;;;;;4891963;29;20186;-85
2023/10/16 19:14:47;;;;;;;3.03;2.07;;;;;;;;;;4902925;29;20225;-85
2023/10/16 19:17:52;;;;;;;2.63;2.20;;;;;;;;;;4879508;29;20214;-85
2023/10/16 19:20:57;;;;;;;2.47;2.27;;;;;;;;;;4899851;29;20201;-86
2023/10/16 19:24:06;;;;;;;5.33;2.73;;;;;;;;;;4900816;29;20224;-85
2023/10/16 19:27:11;;;;;;;3.67;2.80;;;;;;;;;;4889454;29;20182;-85
2023/10/16 19:30:16;;;;;;;5.83;3.00;;;;;;;;;;4904463;29;20189;-86
2023/10/16 19:33:21;;;;;;;7.87;3.10;;;;;;;;;;4893686;29;20233;-83
2023/10/16 19:36:25;;;;;;;4.97;2.73;;;;;;;;;;4893676;29;20647;-85
2023/10/16 19:39:30;;;;;;;3.23;2.50;;;;;;;;;;4904081;29;20182;-84
2023/10/16 19:42:34;;;;;;;4.57;2.73;;;;;;;;;;4881955;29;20194;-86
2023/10/16 19:45:39;;;;;;;3.17;2.57;;;;;;;;;;4903584;29;20194;-85
2023/10/16 19:48:44;;;;;;;6.40;2.70;;;;;;;;;;4902516;29;20206;-85
2023/10/16 19:51:49;;;;;;;3.77;2.60;;;;;;;;;;4895257;29;20209;-85
2023/10/16 19:54:53;;;;;;;18.07;4.47;;;;;;;;;;4903561;29;20663;-83
2023/10/16 19:57:58;;;;;;;7.90;3.60;;;;;;;;;;4903735;29;20233;-85
2023/10/16 20:01:33;;;;;;;8.10;3.90;;;;;;;;;;4904658;29;20632;-85
2023/10/16 20:04:37;;;;;;;6.17;3.47;;;;;;;;;;4904568;29;20229;-85
2023/10/16 20:07:41;;;;;;;8.87;3.40;;;;;;;;;;4903933;29;20181;-85